Aviation Digital Data Service (ADDS)

Output produced by METARs form (0337 UTC 24 February 2017)
found at http://www.aviationweather.gov/adds/metars/
 
LTAF 240320Z 01003KT 9999 FEW040 08/07 Q1023 NOSIG RMK RWY23 04006KT
TAF LTAF 232240Z 2400/2424 03006KT 9999 SCT035
       
LTCP 240250Z VRB02KT CAVOK 05/M03 Q1022
TAF LTCP 240140Z 2403/2412 VRB02KT CAVOK
       
LTBJ 240320Z 15009KT 9999 SCT030 SCT100 09/07 Q1019 NOSIG RMK RWY16 13013KT
TAF LTBJ 232240Z 2400/2424 18012KT 9999 SCT030 
     BECMG 2403/2406 -SHRA BKN025
       
TAF LTCO 240140Z 2403/2412 VRB02KT 0700 FZFG NSC 
     BECMG 2406/2408 4000 BR
       
TAF LTBT 240140Z 2403/2412 VRB02KT 5000 BR NSC 
     TEMPO 2404/2407 2000 
     BECMG 2409/2410 9999 NSW SCT040
       
TAF LTAE 240140Z 2403/2412 VRB02KT CAVOK
       
LTBY 240250Z VRB02KT CAVOK M03/M04 Q1020
TAF LTBY 240140Z 2403/2412 VRB02KT CAVOK 
     TEMPO 2404/2408 3500 BR
       
LTAI 240320Z 35006KT 9999 SCT030 10/06 Q1023 NOSIG RMK RWY18C 34006KT RWY36R 33007KT RWY18L 33005KT
TAF LTAI 232240Z 2400/2424 34006KT 9999 SCT030 
     PROB30 2403/2407 -SHRA BKN025 
     BECMG 2407/2410 18010KT BKN030 
     BECMG 2412/2416 -SHRA 
     BECMG 2416/2420 36006KT
       
LTBA 240320Z 25008KT 210V270 CAVOK 10/06 Q1016 NOSIG RMK RWY17L 22012KT RWY05 25008KT 220V280 RWY23 25016KT
TAF LTBA 232240Z 2400/2506 23012KT CAVOK 
     BECMG 2403/2406 22015G26KT
       
LTBF 240250Z 24003KT CAVOK 05/04 Q1019 NOSIG
TAF LTBF 240140Z 2403/2412 VRB02KT CAVOK 
     PROB30 2406/2408 2000 BR 
     BECMG 2408/2410 SCT035
       
TAF LTBG 240140Z 2403/2412 18015KT CAVOK
       
LTCJ 240320Z 02004KT CAVOK M03/M05 Q1024 RMK RWY20 03005KT
TAF LTCJ 232240Z 2400/2424 VRB02KT CAVOK 
     TEMPO 2401/2405 2000 BR SCT010
       
LTBH 240250Z 21010KT 190V260 CAVOK 14/08 Q1016
TAF LTBH 240140Z 2403/2412 20015G25KT CAVOK
       
LTAY 240250Z VRB03KT CAVOK 03/M01 Q1021
TAF LTAY 240140Z 2403/2412 VRB02KT CAVOK 
     BECMG 2409/2412 FEW035
       
LTFH 240250Z 13007KT CAVOK 12/M00 Q1017 NOSIG
TAF LTFH 240140Z 2403/2412 VRB02KT CAVOK
       
TAF LTBL 240140Z 2403/2412 13009KT 9999 SCT035 SCT100
       
LTBU 240320Z 20006KT CAVOK 05/04 Q1014 RMK RWY23 22008KT
TAF LTBU 232240Z 2400/2424 23009KT CAVOK 
     BECMG 2404/2408 22015G26KT
       
LTBS 240320Z 03007KT 9999 FEW030 SCT100 08/06 Q1022 NOSIG RMK RWY19 34004KT
TAF LTBS 232240Z 2400/2424 VRB02KT 9999 SCT030 
     BECMG 2407/2409 15012KT 
     PROB30 
     TEMPO 2412/2416 SHRA BKN030 
     BECMG 2416/2418 VRB02KT
       
LTCC 240320Z 26003KT CAVOK M03/M06 Q1023 NOSIG RMK RWY16 VRB01KT
TAF LTCC 232240Z 2400/2424 VRB02KT CAVOK
       
LTFD 240250Z 00000KT 9999 SCT035 09/08 Q1019
TAF LTFD 240140Z 2403/2412 VRB02KT CAVOK
       
LTCA 240250Z 25004KT CAVOK M06/M07 Q1024 NOSIG
TAF LTCA 240140Z 2403/2412 VRB02KT CAVOK
       
LTAT 240320Z 18003KT CAVOK M05/M07 Q1023 NOSIG RMK RWY03 20003KT
TAF LTAT 232240Z 2400/2424 VRB02KT CAVOK
       
LTAU 240320Z VRB02KT CAVOK M06/M07 Q1023 NOSIG RMK RWY07 00000KT
TAF LTAU 232240Z 2400/2424 VRB02KT CAVOK 
     TEMPO 2412/2416 FEW040
       
LTCD 240250Z 00000KT CAVOK M06/M07 Q1024 NOSIG
TAF LTCD 240140Z 2403/2412 VRB02KT CAVOK
       
LTCE 240320Z 00000KT 1100 R26L/1100D R08R/0450D R26R/0300D R08L/0450D BCFG NSC M19/M21 Q1022 BECMG TL0400 2000 BR RMK RWY08R 30002KT RWY26R 35003KT 260V360 RWY08L VRB02KT
TAF LTCE 232240Z 2400/2424 VRB02KT 1200 BCFG NSC 
     BECMG 2402/2404 2000 BR 
     BECMG 2404/2406 4000 
     BECMG 2406/2408 7000
       
LTAC 240320Z 00000KT CAVOK M03/M05 Q1020 NOSIG RMK RWY21L 00000KT RWY03L 00000KT RWY21R 00000KT
TAF LTAC 232240Z 2400/2424 VRB02KT CAVOK 
     BECMG 2406/2408 SCT040 
     TEMPO 2410/2414 20012KT 
     BECMG 2415/2417 CAVOK
       
TAF LTBI 240140Z 2403/2412 VRB02KT CAVOK 
     TEMPO 2404/2408 3500 BR
       
TAF LTAD 240140Z 2403/2412 VRB02KT CAVOK 
     BECMG 2407/2409 SCT040
       
TAF LTBK 240140Z 2403/2412 18012KT 9999 SCT030 
     BECMG 2403/2406 -SHRA BKN025
       
TAF LTAB 240140Z 2403/2412 VRB02KT CAVOK 
     BECMG 2407/2409 SCT040
       
LTAG 240320Z 03007KT 9999 SCT035 09/08 Q1022 NOSIG
TAF LTAG 232240Z 2400/2424 03008KT 9999 SCT035
       
LTCN 240250Z 09006KT CAVOK 04/01 Q1023 NOSIG
TAF LTCN 240140Z 2403/2412 VRB02KT CAVOK
       
TAF LTFA 240140Z 2403/2412 13009KT 9999 SCT035 SCT100
       
LTAZ 240320Z 14011KT CAVOK 01/M04 Q1022 RMK RWY29 17003KT
TAF LTAZ 232240Z 2400/2424 VRB02KT CAVOK 
     TEMPO 2411/2415 20012KT FEW040
       
LTCF 240250Z 21005KT CAVOK M09/M12 Q1020
TAF LTCF 240140Z 2403/2412 24008KT CAVOK
       
TAF LTAL 240140Z 2403/2412 VRB02KT CAVOK
       
LTAN 240250Z VRB01KT 7000 NSC M02/M04 Q1021 BECMG 4000 BR
TAF LTAN 240140Z 2403/2412 VRB02KT 7000 NSC 
     BECMG 2403/2405 4000 BR 
     BECMG 2406/2408 9999 NSW FEW040
       
TAF LTBN 240140Z 2403/2412 VRB02KT CAVOK 
     TEMPO 2404/2408 3500 BR
       
LTCR 240250Z 03007KT CAVOK 02/M03 Q1022
TAF LTCR 240140Z 2403/2412 VRB02KT CAVOK
       
LTAP 240320Z 00000KT CAVOK M01/M05 Q1019 NOSIG RMK RWY23 02004KT
TAF LTAP 232240Z 2400/2424 VRB02KT CAVOK 
     BECMG 2405/2408 22012KT 
     BECMG 2415/2418 VRB02KT
       
LTFE 240320Z 13003KT 6000 SCT035 06/06 Q1022 NOSIG RMK RWY10 12003KT
TAF LTFE 232240Z 2400/2424 VRB02KT 9999 SCT035 
     PROB40 2403/2406 3500 BR 
     BECMG 2408/2410 16012KT 
     BECMG 2414/2417 VRB02KT
       
TAF LTCK 240140Z 2403/2412 VRB02KT 0800 FZFG VV002 
     BECMG 2406/2408 1400 BR SCT015 BKN030 
     BECMG 2409/2410 3500 SCT040
       
LTAJ 240320Z VRB01KT CAVOK 01/M01 Q1023 NOSIG RMK RWY10 VRB02KT
TAF LTAJ 232240Z 2400/2424 VRB02KT CAVOK 
     BECMG 2410/2412 SCT040
       
LTFJ 240320Z 24010KT CAVOK 11/05 Q1015 NOSIG RMK RWY24 25010KT
TAF LTFJ 232240Z 2400/2424 21009KT CAVOK 
     BECMG 2407/2411 23015G25KT 
     TEMPO 2412/2416 24020G35KT
       
TAF LTBX 240140Z 2403/2412 24005KT CAVOK 
     BECMG 2405/2408 24015KT 
     BECMG 2409/2412 24020G32KT
       
TAF LTCL 240140Z 2403/2412 VRB02KT CAVOK
       
TAF LTCM 240140Z 2403/2412 VRB02KT CAVOK
       
LTFC 240320Z 00000KT CAVOK M02/M03 Q1022 RMK RWY23 VRB02KT
TAF LTFC 232240Z 2400/2424 VRB02KT CAVOK 
     BECMG 2406/2409 20012KT SCT035 
     BECMG 2416/2420 34006KT -SHRA BKN030
       
TAF LTAW 240140Z 2403/2412 VRB02KT CAVOK
       
LTBQ 240250Z 00000KT CAVOK M01/M01 Q1016 NOSIG
TAF LTBQ 240140Z 2403/2412 VRB02KT CAVOK 
     BECMG 2406/2408 28012KT
       
LTCG 240320Z 21016KT CAVOK 16/M05 Q1018 NOSIG RMK RWY29 21011KT
TAF LTCG 232240Z 2400/2424 21018G30KT 9999 SCT100 
     BECMG 2403/2406 09009KT CAVOK 
     BECMG 2416/2419 21015KT
       
LTCI 240250Z VRB02KT 9999 FEW040 M08/M11 Q1023 NOSIG
TAF LTCI 240140Z 2403/2412 VRB02KT 9999 SCT040
       
TAF LTBP 240140Z 2403/2412 VRB02KT CAVOK 
     BECMG 2408/2411 24012KT
       
LTBR 240320Z VRB01KT CAVOK M00/M02 Q1017 NOSIG RMK RWY07 00000KT
TAF LTBR 232240Z 2400/2424 VRB02KT CAVOK 
     BECMG 2405/2409 21012KT